sensor_id;sensor_type;location;lat;lon;timestamp;temperature;humidity
15630;DHT22;7914;50.842;0.166;2023-07-31T12:06:33;17.80;100.00
15630;DHT22;7914;50.842;0.166;2023-07-31T12:09:04;17.80;100.00
15630;DHT22;7914;50.842;0.166;2023-07-31T12:11:30;17.90;100.00
15630;DHT22;7914;50.842;0.166;2023-07-31T12:13:56;18.00;100.00
15630;DHT22;7914;50.842;0.166;2023-07-31T12:16:26;18.10;100.00
15630;DHT22;7914;50.842;0.166;2023-07-31T12:18:52;18.10;100.00
15630;DHT22;7914;50.842;0.166;2023-07-31T12:21:19;18.10;100.00
15630;DHT22;7914;50.842;0.166;2023-07-31T12:23:45;18.20;100.00
15630;DHT22;7914;50.842;0.166;2023-07-31T12:26:15;18.20;100.00
15630;DHT22;7914;50.842;0.166;2023-07-31T12:28:43;18.20;100.00
15630;DHT22;7914;50.842;0.166;2023-07-31T12:31:22;18.10;100.00
15630;DHT22;7914;50.842;0.166;2023-07-31T12:33:50;18.20;100.00
15630;DHT22;7914;50.842;0.166;2023-07-31T12:36:17;18.20;100.00
15630;DHT22;7914;50.842;0.166;2023-07-31T12:38:44;18.20;100.00
15630;DHT22;7914;50.842;0.166;2023-07-31T12:41:10;18.20;100.00
15630;DHT22;7914;50.842;0.166;2023-07-31T12:43:37;18.20;100.00
15630;DHT22;7914;50.842;0.166;2023-07-31T12:46:03;18.20;100.00
15630;DHT22;7914;50.842;0.166;2023-07-31T12:48:30;18.30;100.00
15630;DHT22;7914;50.842;0.166;2023-07-31T12:50:56;18.30;100.00
15630;DHT22;7914;50.842;0.166;2023-07-31T12:53:22;18.40;100.00
15630;DHT22;7914;50.842;0.166;2023-07-31T12:55:47;18.40;100.00
15630;DHT22;7914;50.842;0.166;2023-07-31T12:58:13;18.50;100.00
15630;DHT22;7914;50.842;0.166;2023-07-31T13:00:38;18.50;100.00
15630;DHT22;7914;50.842;0.166;2023-07-31T13:03:04;18.60;100.00
15630;DHT22;7914;50.842;0.166;2023-07-31T13:05:30;18.60;100.00
15630;DHT22;7914;50.842;0.166;2023-07-31T13:07:56;18.60;100.00
15630;DHT22;7914;50.842;0.166;2023-07-31T13:10:23;18.60;100.00
15630;DHT22;7914;50.842;0.166;2023-07-31T13:12:49;18.60;100.00
15630;DHT22;7914;50.842;0.166;2023-07-31T13:15:15;18.60;100.00
15630;DHT22;7914;50.842;0.166;2023-07-31T13:17:40;18.60;100.00
15630;DHT22;7914;50.842;0.166;2023-07-31T13:20:07;18.50;100.00
15630;DHT22;7914;50.842;0.166;2023-07-31T13:22:32;18.50;100.00
15630;DHT22;7914;50.842;0.166;2023-07-31T13:24:58;18.60;100.00
15630;DHT22;7914;50.842;0.166;2023-07-31T13:27:24;18.60;100.00
15630;DHT22;7914;50.842;0.166;2023-07-31T13:29:50;18.50;100.00
15630;DHT22;7914;50.842;0.166;2023-07-31T13:32:17;18.50;100.00
15630;DHT22;7914;50.842;0.166;2023-07-31T13:34:43;18.50;100.00
15630;DHT22;7914;50.842;0.166;2023-07-31T13:37:09;18.50;100.00
15630;DHT22;7914;50.842;0.166;2023-07-31T13:39:35;18.50;100.00
15630;DHT22;7914;50.842;0.166;2023-07-31T13:42:02;18.60;100.00
15630;DHT22;7914;50.842;0.166;2023-07-31T13:44:27;18.60;100.00
15630;DHT22;7914;50.842;0.166;2023-07-31T13:46:53;18.80;100.00
15630;DHT22;7914;50.842;0.166;2023-07-31T13:49:19;18.90;100.00
15630;DHT22;7914;50.842;0.166;2023-07-31T13:51:44;19.00;100.00
15630;DHT22;7914;50.842;0.166;2023-07-31T13:54:11;19.10;100.00
15630;DHT22;7914;50.842;0.166;2023-07-31T13:56:37;19.00;100.00
15630;DHT22;7914;50.842;0.166;2023-07-31T13:59:03;19.00;100.00
15630;DHT22;7914;50.842;0.166;2023-07-31T14:01:29;19.00;100.00
15630;DHT22;7914;50.842;0.166;2023-07-31T14:03:55;18.90;100.00
15630;DHT22;7914;50.842;0.166;2023-07-31T14:06:21;18.90;100.00
15630;DHT22;7914;50.842;0.166;2023-07-31T14:08:47;18.80;100.00
15630;DHT22;7914;50.842;0.166;2023-07-31T14:11:12;18.80;100.00
15630;DHT22;7914;50.842;0.166;2023-07-31T14:13:38;18.70;100.00
15630;DHT22;7914;50.842;0.166;2023-07-31T14:16:04;18.60;100.00
15630;DHT22;7914;50.842;0.166;2023-07-31T14:18:29;18.50;100.00
15630;DHT22;7914;50.842;0.166;2023-07-31T14:20:55;18.60;100.00
15630;DHT22;7914;50.842;0.166;2023-07-31T14:23:21;18.50;100.00
15630;DHT22;7914;50.842;0.166;2023-07-31T14:25:47;18.50;100.00
15630;DHT22;7914;50.842;0.166;2023-07-31T14:28:13;18.40;100.00
15630;DHT22;7914;50.842;0.166;2023-07-31T14:30:38;18.40;100.00
15630;DHT22;7914;50.842;0.166;2023-07-31T14:33:04;18.40;100.00
15630;DHT22;7914;50.842;0.166;2023-07-31T14:35:30;18.40;100.00
15630;DHT22;7914;50.842;0.166;2023-07-31T14:37:56;18.20;100.00
15630;DHT22;7914;50.842;0.166;2023-07-31T14:40:21;18.20;100.00
15630;DHT22;7914;50.842;0.166;2023-07-31T14:42:47;18.20;100.00
15630;DHT22;7914;50.842;0.166;2023-07-31T14:45:12;18.20;100.00
15630;DHT22;7914;50.842;0.166;2023-07-31T14:47:38;18.20;100.00
15630;DHT22;7914;50.842;0.166;2023-07-31T14:50:04;18.20;100.00
15630;DHT22;7914;50.842;0.166;2023-07-31T14:52:30;18.20;100.00
15630;DHT22;7914;50.842;0.166;2023-07-31T14:54:56;18.20;100.00
15630;DHT22;7914;50.842;0.166;2023-07-31T14:57:22;18.10;100.00
15630;DHT22;7914;50.842;0.166;2023-07-31T14:59:47;18.10;100.00
15630;DHT22;7914;50.842;0.166;2023-07-31T15:02:14;18.10;100.00
15630;DHT22;7914;50.842;0.166;2023-07-31T15:04:40;18.00;100.00
15630;DHT22;7914;50.842;0.166;2023-07-31T15:07:06;17.90;100.00
15630;DHT22;7914;50.842;0.166;2023-07-31T15:09:31;17.80;100.00
15630;DHT22;7914;50.842;0.166;2023-07-31T15:11:57;17.70;100.00
15630;DHT22;7914;50.842;0.166;2023-07-31T15:14:24;17.60;100.00
15630;DHT22;7914;50.842;0.166;2023-07-31T15:16:50;17.60;100.00
15630;DHT22;7914;50.842;0.166;2023-07-31T15:19:16;17.60;100.00
15630;DHT22;7914;50.842;0.166;2023-07-31T15:21:42;17.70;100.00
15630;DHT22;7914;50.842;0.166;2023-07-31T15:24:08;17.80;100.00
15630;DHT22;7914;50.842;0.166;2023-07-31T15:26:33;17.90;100.00
15630;DHT22;7914;50.842;0.166;2023-07-31T15:29:04;18.10;100.00
15630;DHT22;7914;50.842;0.166;2023-07-31T15:31:41;18.10;100.00
15630;DHT22;7914;50.842;0.166;2023-07-31T15:34:07;18.00;100.00
15630;DHT22;7914;50.842;0.166;2023-07-31T15:36:33;17.80;100.00
15630;DHT22;7914;50.842;0.166;2023-07-31T15:38:59;17.80;100.00
15630;DHT22;7914;50.842;0.166;2023-07-31T15:41:24;17.80;100.00
15630;DHT22;7914;50.842;0.166;2023-07-31T15:43:55;17.80;100.00
15630;DHT22;7914;50.842;0.166;2023-07-31T15:46:21;17.80;100.00
15630;DHT22;7914;50.842;0.166;2023-07-31T15:48:47;17.70;100.00
15630;DHT22;7914;50.842;0.166;2023-07-31T15:51:13;17.90;100.00
15630;DHT22;7914;50.842;0.166;2023-07-31T15:53:38;18.00;100.00
15630;DHT22;7914;50.842;0.166;2023-07-31T15:56:04;18.10;100.00
15630;DHT22;7914;50.842;0.166;2023-07-31T15:58:30;18.10;100.00
15630;DHT22;7914;50.842;0.166;2023-07-31T16:00:56;18.00;100.00
15630;DHT22;7914;50.842;0.166;2023-07-31T16:03:21;18.00;100.00
15630;DHT22;7914;50.842;0.166;2023-07-31T16:05:48;18.00;100.00
15630;DHT22;7914;50.842;0.166;2023-07-31T16:08:14;18.00;100.00
15630;DHT22;7914;50.842;0.166;2023-07-31T16:10:39;18.10;100.00
15630;DHT22;7914;50.842;0.166;2023-07-31T16:13:05;18.10;100.00
15630;DHT22;7914;50.842;0.166;2023-07-31T16:15:31;18.10;100.00
15630;DHT22;7914;50.842;0.166;2023-07-31T16:17:57;18.20;100.00
15630;DHT22;7914;50.842;0.166;2023-07-31T16:20:22;18.20;100.00
15630;DHT22;7914;50.842;0.166;2023-07-31T16:22:49;18.20;100.00
15630;DHT22;7914;50.842;0.166;2023-07-31T16:25:15;18.20;100.00
15630;DHT22;7914;50.842;0.166;2023-07-31T16:27:40;18.30;100.00
15630;DHT22;7914;50.842;0.166;2023-07-31T16:30:07;18.30;100.00
15630;DHT22;7914;50.842;0.166;2023-07-31T16:32:33;18.20;100.00
15630;DHT22;7914;50.842;0.166;2023-07-31T16:34:58;18.20;100.00
15630;DHT22;7914;50.842;0.166;2023-07-31T16:37:24;18.20;100.00
15630;DHT22;7914;50.842;0.166;2023-07-31T16:39:50;18.10;100.00
15630;DHT22;7914;50.842;0.166;2023-07-31T16:42:20;17.90;100.00
15630;DHT22;7914;50.842;0.166;2023-07-31T16:44:46;17.90;100.00
15630;DHT22;7914;50.842;0.166;2023-07-31T16:47:12;17.90;100.00
15630;DHT22;7914;50.842;0.166;2023-07-31T16:49:37;17.90;100.00
15630;DHT22;7914;50.842;0.166;2023-07-31T16:52:03;17.80;100.00
15630;DHT22;7914;50.842;0.166;2023-07-31T16:54:29;17.80;100.00
15630;DHT22;7914;50.842;0.166;2023-07-31T16:56:55;17.80;100.00
15630;DHT22;7914;50.842;0.166;2023-07-31T16:59:21;17.90;100.00
15630;DHT22;7914;50.842;0.166;2023-07-31T17:01:47;17.80;100.00
15630;DHT22;7914;50.842;0.166;2023-07-31T17:04:13;17.70;100.00
15630;DHT22;7914;50.842;0.166;2023-07-31T17:06:38;17.80;100.00
15630;DHT22;7914;50.842;0.166;2023-07-31T17:09:04;17.80;100.00
15630;DHT22;7914;50.842;0.166;2023-07-31T17:11:30;17.70;100.00
15630;DHT22;7914;50.842;0.166;2023-07-31T17:13:55;17.80;100.00
15630;DHT22;7914;50.842;0.166;2023-07-31T17:16:22;17.90;100.00
15630;DHT22;7914;50.842;0.166;2023-07-31T17:18:47;17.90;100.00
15630;DHT22;7914;50.842;0.166;2023-07-31T17:21:14;17.90;100.00
15630;DHT22;7914;50.842;0.166;2023-07-31T17:23:40;17.90;100.00
15630;DHT22;7914;50.842;0.166;2023-07-31T17:26:06;17.90;100.00
15630;DHT22;7914;50.842;0.166;2023-07-31T17:28:33;17.90;100.00
15630;DHT22;7914;50.842;0.166;2023-07-31T17:30:58;17.80;100.00
15630;DHT22;7914;50.842;0.166;2023-07-31T17:33:24;18.00;100.00
15630;DHT22;7914;50.842;0.166;2023-07-31T17:35:50;18.00;100.00
15630;DHT22;7914;50.842;0.166;2023-07-31T17:38:16;18.10;100.00
15630;DHT22;7914;50.842;0.166;2023-07-31T17:40:41;18.00;100.00
15630;DHT22;7914;50.842;0.166;2023-07-31T17:43:08;18.00;100.00
15630;DHT22;7914;50.842;0.166;2023-07-31T17:45:36;18.00;100.00
15630;DHT22;7914;50.842;0.166;2023-07-31T17:48:02;18.00;100.00
15630;DHT22;7914;50.842;0.166;2023-07-31T17:50:29;17.90;100.00
15630;DHT22;7914;50.842;0.166;2023-07-31T17:52:55;17.90;100.00
15630;DHT22;7914;50.842;0.166;2023-07-31T17:55:21;17.80;100.00
15630;DHT22;7914;50.842;0.166;2023-07-31T17:57:47;17.70;100.00
15630;DHT22;7914;50.842;0.166;2023-07-31T18:00:12;17.70;100.00
15630;DHT22;7914;50.842;0.166;2023-07-31T18:02:38;17.70;100.00
15630;DHT22;7914;50.842;0.166;2023-07-31T18:05:05;17.60;100.00
15630;DHT22;7914;50.842;0.166;2023-07-31T18:07:31;17.60;100.00
15630;DHT22;7914;50.842;0.166;2023-07-31T18:09:57;17.50;100.00
15630;DHT22;7914;50.842;0.166;2023-07-31T18:12:22;17.50;100.00
15630;DHT22;7914;50.842;0.166;2023-07-31T18:14:48;17.50;100.00
15630;DHT22;7914;50.842;0.166;2023-07-31T18:17:14;17.60;100.00
15630;DHT22;7914;50.842;0.166;2023-07-31T18:19:40;17.60;100.00
15630;DHT22;7914;50.842;0.166;2023-07-31T18:22:05;17.60;100.00
15630;DHT22;7914;50.842;0.166;2023-07-31T18:24:31;17.60;100.00
15630;DHT22;7914;50.842;0.166;2023-07-31T18:26:57;17.40;100.00
15630;DHT22;7914;50.842;0.166;2023-07-31T18:29:23;17.40;100.00
15630;DHT22;7914;50.842;0.166;2023-07-31T18:31:49;17.30;100.00
15630;DHT22;7914;50.842;0.166;2023-07-31T18:34:15;17.30;100.00
15630;DHT22;7914;50.842;0.166;2023-07-31T18:36:40;17.30;100.00
15630;DHT22;7914;50.842;0.166;2023-07-31T18:39:08;17.40;100.00
15630;DHT22;7914;50.842;0.166;2023-07-31T18:41:33;17.40;100.00
15630;DHT22;7914;50.842;0.166;2023-07-31T18:43:59;17.30;100.00
15630;DHT22;7914;50.842;0.166;2023-07-31T18:46:25;17.30;100.00
15630;DHT22;7914;50.842;0.166;2023-07-31T18:48:51;17.20;100.00
15630;DHT22;7914;50.842;0.166;2023-07-31T18:51:16;17.10;100.00
15630;DHT22;7914;50.842;0.166;2023-07-31T18:53:43;17.10;100.00
15630;DHT22;7914;50.842;0.166;2023-07-31T18:56:09;17.10;100.00
15630;DHT22;7914;50.842;0.166;2023-07-31T18:58:34;17.00;100.00
15630;DHT22;7914;50.842;0.166;2023-07-31T19:01:00;16.90;100.00
15630;DHT22;7914;50.842;0.166;2023-07-31T19:03:26;16.80;100.00
15630;DHT22;7914;50.842;0.166;2023-07-31T19:06:03;16.70;100.00
15630;DHT22;7914;50.842;0.166;2023-07-31T19:08:29;16.70;100.00
15630;DHT22;7914;50.842;0.166;2023-07-31T19:10:55;16.70;100.00
15630;DHT22;7914;50.842;0.166;2023-07-31T19:13:21;16.70;100.00
15630;DHT22;7914;50.842;0.166;2023-07-31T19:15:46;16.60;100.00
15630;DHT22;7914;50.842;0.166;2023-07-31T19:18:14;16.60;100.00
15630;DHT22;7914;50.842;0.166;2023-07-31T19:20:40;16.50;100.00
15630;DHT22;7914;50.842;0.166;2023-07-31T19:23:06;16.40;100.00
15630;DHT22;7914;50.842;0.166;2023-07-31T19:25:32;16.40;100.00
15630;DHT22;7914;50.842;0.166;2023-07-31T19:27:59;16.30;100.00
15630;DHT22;7914;50.842;0.166;2023-07-31T19:30:24;16.30;100.00
15630;DHT22;7914;50.842;0.166;2023-07-31T19:32:50;16.20;100.00
15630;DHT22;7914;50.842;0.166;2023-07-31T19:35:16;16.30;100.00
15630;DHT22;7914;50.842;0.166;2023-07-31T19:37:42;16.30;100.00
15630;DHT22;7914;50.842;0.166;2023-07-31T19:40:08;16.20;100.00
15630;DHT22;7914;50.842;0.166;2023-07-31T19:42:33;16.20;100.00
15630;DHT22;7914;50.842;0.166;2023-07-31T19:45:05;16.20;100.00
15630;DHT22;7914;50.842;0.166;2023-07-31T19:47:31;16.20;100.00
15630;DHT22;7914;50.842;0.166;2023-07-31T19:49:57;16.20;100.00
15630;DHT22;7914;50.842;0.166;2023-07-31T19:52:23;16.20;100.00
15630;DHT22;7914;50.842;0.166;2023-07-31T19:54:49;16.20;100.00
15630;DHT22;7914;50.842;0.166;2023-07-31T19:57:15;16.10;100.00
15630;DHT22;7914;50.842;0.166;2023-07-31T19:59:40;16.10;100.00
15630;DHT22;7914;50.842;0.166;2023-07-31T20:02:07;16.10;100.00
15630;DHT22;7914;50.842;0.166;2023-07-31T20:04:33;16.00;100.00
15630;DHT22;7914;50.842;0.166;2023-07-31T20:06:59;16.10;100.00
15630;DHT22;7914;50.842;0.166;2023-07-31T20:09:24;16.00;100.00
15630;DHT22;7914;50.842;0.166;2023-07-31T20:11:50;16.00;100.00
15630;DHT22;7914;50.842;0.166;2023-07-31T20:14:16;15.90;100.00
15630;DHT22;7914;50.842;0.166;2023-07-31T20:16:41;15.90;100.00
15630;DHT22;7914;50.842;0.166;2023-07-31T20:19:07;15.90;100.00
15630;DHT22;7914;50.842;0.166;2023-07-31T20:21:33;15.80;100.00
15630;DHT22;7914;50.842;0.166;2023-07-31T20:23:59;15.80;100.00
15630;DHT22;7914;50.842;0.166;2023-07-31T20:26:24;15.80;100.00
15630;DHT22;7914;50.842;0.166;2023-07-31T20:28:50;15.80;100.00
15630;DHT22;7914;50.842;0.166;2023-07-31T20:31:16;15.70;100.00
15630;DHT22;7914;50.842;0.166;2023-07-31T20:33:44;15.80;100.00
15630;DHT22;7914;50.842;0.166;2023-07-31T20:36:10;15.70;100.00
15630;DHT22;7914;50.842;0.166;2023-07-31T20:38:36;15.70;100.00
15630;DHT22;7914;50.842;0.166;2023-07-31T20:41:01;15.70;100.00
15630;DHT22;7914;50.842;0.166;2023-07-31T20:43:27;15.70;100.00
15630;DHT22;7914;50.842;0.166;2023-07-31T20:45:53;15.70;100.00
15630;DHT22;7914;50.842;0.166;2023-07-31T20:48:19;15.60;100.00
15630;DHT22;7914;50.842;0.166;2023-07-31T20:50:44;15.60;100.00
15630;DHT22;7914;50.842;0.166;2023-07-31T20:53:10;15.60;100.00
15630;DHT22;7914;50.842;0.166;2023-07-31T20:55:40;15.60;100.00
15630;DHT22;7914;50.842;0.166;2023-07-31T20:58:07;15.60;100.00
15630;DHT22;7914;50.842;0.166;2023-07-31T21:00:34;15.60;100.00
15630;DHT22;7914;50.842;0.166;2023-07-31T21:02:59;15.60;100.00
15630;DHT22;7914;50.842;0.166;2023-07-31T21:05:25;15.60;100.00
15630;DHT22;7914;50.842;0.166;2023-07-31T21:07:51;15.60;100.00
15630;DHT22;7914;50.842;0.166;2023-07-31T21:10:16;15.60;100.00
15630;DHT22;7914;50.842;0.166;2023-07-31T21:12:42;15.60;100.00
15630;DHT22;7914;50.842;0.166;2023-07-31T21:15:09;15.60;100.00
15630;DHT22;7914;50.842;0.166;2023-07-31T21:17:35;15.70;100.00
15630;DHT22;7914;50.842;0.166;2023-07-31T21:20:02;15.60;100.00
15630;DHT22;7914;50.842;0.166;2023-07-31T21:22:28;15.60;100.00
15630;DHT22;7914;50.842;0.166;2023-07-31T21:25:22;15.60;100.00
15630;DHT22;7914;50.842;0.166;2023-07-31T21:27:48;15.50;100.00
15630;DHT22;7914;50.842;0.166;2023-07-31T21:30:13;15.50;100.00
15630;DHT22;7914;50.842;0.166;2023-07-31T21:32:39;15.50;100.00
15630;DHT22;7914;50.842;0.166;2023-07-31T21:35:05;15.60;100.00
15630;DHT22;7914;50.842;0.166;2023-07-31T21:37:31;15.60;100.00
15630;DHT22;7914;50.842;0.166;2023-07-31T21:39:56;15.60;100.00
15630;DHT22;7914;50.842;0.166;2023-07-31T21:42:22;15.60;100.00
15630;DHT22;7914;50.842;0.166;2023-07-31T21:44:47;15.70;100.00
15630;DHT22;7914;50.842;0.166;2023-07-31T21:47:13;15.70;100.00
15630;DHT22;7914;50.842;0.166;2023-07-31T21:49:39;15.70;100.00
15630;DHT22;7914;50.842;0.166;2023-07-31T21:52:05;15.60;100.00
15630;DHT22;7914;50.842;0.166;2023-07-31T21:54:30;15.70;100.00
15630;DHT22;7914;50.842;0.166;2023-07-31T21:56:56;15.70;100.00
15630;DHT22;7914;50.842;0.166;2023-07-31T21:59:22;15.60;100.00
15630;DHT22;7914;50.842;0.166;2023-07-31T22:01:47;15.60;100.00
15630;DHT22;7914;50.842;0.166;2023-07-31T22:04:13;15.60;100.00
15630;DHT22;7914;50.842;0.166;2023-07-31T22:06:38;15.60;100.00
15630;DHT22;7914;50.842;0.166;2023-07-31T22:09:04;15.70;100.00
15630;DHT22;7914;50.842;0.166;2023-07-31T22:11:30;15.70;100.00
15630;DHT22;7914;50.842;0.166;2023-07-31T22:13:56;15.70;100.00
15630;DHT22;7914;50.842;0.166;2023-07-31T22:16:21;15.70;100.00
15630;DHT22;7914;50.842;0.166;2023-07-31T22:18:47;15.70;100.00
15630;DHT22;7914;50.842;0.166;2023-07-31T22:21:12;15.70;100.00
15630;DHT22;7914;50.842;0.166;2023-07-31T22:23:40;15.60;100.00
15630;DHT22;7914;50.842;0.166;2023-07-31T22:26:06;15.70;100.00
15630;DHT22;7914;50.842;0.166;2023-07-31T22:28:31;15.70;100.00
15630;DHT22;7914;50.842;0.166;2023-07-31T22:30:57;15.70;100.00
15630;DHT22;7914;50.842;0.166;2023-07-31T22:33:22;15.70;100.00
15630;DHT22;7914;50.842;0.166;2023-07-31T22:35:49;15.70;100.00
15630;DHT22;7914;50.842;0.166;2023-07-31T22:38:16;15.70;100.00
15630;DHT22;7914;50.842;0.166;2023-07-31T22:40:41;15.70;100.00
15630;DHT22;7914;50.842;0.166;2023-07-31T22:43:07;15.70;100.00
15630;DHT22;7914;50.842;0.166;2023-07-31T22:45:33;15.60;100.00
15630;DHT22;7914;50.842;0.166;2023-07-31T22:47:58;15.60;100.00
15630;DHT22;7914;50.842;0.166;2023-07-31T22:50:24;15.60;100.00
15630;DHT22;7914;50.842;0.166;2023-07-31T22:52:50;15.60;100.00
15630;DHT22;7914;50.842;0.166;2023-07-31T22:55:15;15.60;100.00
15630;DHT22;7914;50.842;0.166;2023-07-31T22:57:41;15.60;100.00
15630;DHT22;7914;50.842;0.166;2023-07-31T23:00:07;15.50;100.00
15630;DHT22;7914;50.842;0.166;2023-07-31T23:02:33;15.50;100.00
15630;DHT22;7914;50.842;0.166;2023-07-31T23:04:58;15.40;100.00
15630;DHT22;7914;50.842;0.166;2023-07-31T23:07:24;15.40;100.00
15630;DHT22;7914;50.842;0.166;2023-07-31T23:09:51;15.40;100.00
15630;DHT22;7914;50.842;0.166;2023-07-31T23:12:17;15.30;100.00
15630;DHT22;7914;50.842;0.166;2023-07-31T23:14:44;15.30;100.00
15630;DHT22;7914;50.842;0.166;2023-07-31T23:17:09;15.30;100.00
15630;DHT22;7914;50.842;0.166;2023-07-31T23:19:35;15.30;100.00
15630;DHT22;7914;50.842;0.166;2023-07-31T23:22:01;15.30;100.00
15630;DHT22;7914;50.842;0.166;2023-07-31T23:24:26;15.30;100.00
15630;DHT22;7914;50.842;0.166;2023-07-31T23:26:52;15.30;100.00
15630;DHT22;7914;50.842;0.166;2023-07-31T23:29:17;15.20;100.00
15630;DHT22;7914;50.842;0.166;2023-07-31T23:31:43;15.20;100.00
